sensor_id;sensor_type;location;lat;lon;timestamp;temperature;humidity
2639;DHT22;1329;51.384;7.122;2024-02-26T00:02:25;7.90;75.10
2639;DHT22;1329;51.384;7.122;2024-02-26T00:04:53;7.90;74.60
2639;DHT22;1329;51.384;7.122;2024-02-26T00:07:20;7.90;76.10
2639;DHT22;1329;51.384;7.122;2024-02-26T00:09:47;7.90;76.30
2639;DHT22;1329;51.384;7.122;2024-02-26T00:12:15;7.90;76.50
2639;DHT22;1329;51.384;7.122;2024-02-26T00:14:42;7.90;76.50
2639;DHT22;1329;51.384;7.122;2024-02-26T00:17:11;7.90;76.60
2639;DHT22;1329;51.384;7.122;2024-02-26T00:19:40;7.90;77.00
2639;DHT22;1329;51.384;7.122;2024-02-26T00:22:08;7.90;76.90
2639;DHT22;1329;51.384;7.122;2024-02-26T00:24:36;8.00;78.30
2639;DHT22;1329;51.384;7.122;2024-02-26T00:27:04;7.90;79.00
2639;DHT22;1329;51.384;7.122;2024-02-26T00:29:31;7.90;79.30
2639;DHT22;1329;51.384;7.122;2024-02-26T00:31:59;7.90;79.70
2639;DHT22;1329;51.384;7.122;2024-02-26T00:34:26;7.90;79.80
2639;DHT22;1329;51.384;7.122;2024-02-26T00:36:55;7.90;79.50
2639;DHT22;1329;51.384;7.122;2024-02-26T00:39:23;7.90;78.20
2639;DHT22;1329;51.384;7.122;2024-02-26T00:41:50;7.90;78.40
2639;DHT22;1329;51.384;7.122;2024-02-26T00:44:17;7.90;78.40
2639;DHT22;1329;51.384;7.122;2024-02-26T00:46:45;7.90;78.90
2639;DHT22;1329;51.384;7.122;2024-02-26T00:49:13;7.90;78.00
2639;DHT22;1329;51.384;7.122;2024-02-26T00:51:40;7.80;76.90
2639;DHT22;1329;51.384;7.122;2024-02-26T00:54:09;7.80;77.10
2639;DHT22;1329;51.384;7.122;2024-02-26T00:56:36;7.80;76.20
2639;DHT22;1329;51.384;7.122;2024-02-26T00:59:04;7.80;79.00
2639;DHT22;1329;51.384;7.122;2024-02-26T01:01:31;7.80;78.40
2639;DHT22;1329;51.384;7.122;2024-02-26T01:03:59;7.80;78.20
2639;DHT22;1329;51.384;7.122;2024-02-26T01:06:26;7.80;78.20
2639;DHT22;1329;51.384;7.122;2024-02-26T01:08:54;7.80;78.20
2639;DHT22;1329;51.384;7.122;2024-02-26T01:11:23;7.80;78.40
2639;DHT22;1329;51.384;7.122;2024-02-26T01:13:51;7.80;77.50
2639;DHT22;1329;51.384;7.122;2024-02-26T01:16:22;7.80;78.40
2639;DHT22;1329;51.384;7.122;2024-02-26T01:18:49;7.80;78.30
2639;DHT22;1329;51.384;7.122;2024-02-26T01:21:17;7.90;78.00
2639;DHT22;1329;51.384;7.122;2024-02-26T01:23:44;7.80;78.00
2639;DHT22;1329;51.384;7.122;2024-02-26T01:26:11;7.80;77.70
2639;DHT22;1329;51.384;7.122;2024-02-26T01:28:41;7.80;77.70
2639;DHT22;1329;51.384;7.122;2024-02-26T01:31:09;7.90;77.40
2639;DHT22;1329;51.384;7.122;2024-02-26T01:33:36;7.80;77.70
2639;DHT22;1329;51.384;7.122;2024-02-26T01:36:04;7.90;78.80
2639;DHT22;1329;51.384;7.122;2024-02-26T01:38:32;7.80;78.90
2639;DHT22;1329;51.384;7.122;2024-02-26T01:40:59;7.80;80.30
2639;DHT22;1329;51.384;7.122;2024-02-26T01:43:27;7.80;79.50
2639;DHT22;1329;51.384;7.122;2024-02-26T01:45:56;7.90;80.00
2639;DHT22;1329;51.384;7.122;2024-02-26T01:48:23;7.90;79.90
2639;DHT22;1329;51.384;7.122;2024-02-26T01:50:51;7.80;80.90
2639;DHT22;1329;51.384;7.122;2024-02-26T01:53:20;7.80;81.40
2639;DHT22;1329;51.384;7.122;2024-02-26T01:55:47;7.80;82.30
2639;DHT22;1329;51.384;7.122;2024-02-26T01:58:15;7.90;81.60
2639;DHT22;1329;51.384;7.122;2024-02-26T02:00:43;7.80;81.60
2639;DHT22;1329;51.384;7.122;2024-02-26T02:03:12;7.80;82.20
2639;DHT22;1329;51.384;7.122;2024-02-26T02:05:40;7.80;81.60
2639;DHT22;1329;51.384;7.122;2024-02-26T02:08:08;7.90;82.80
2639;DHT22;1329;51.384;7.122;2024-02-26T02:10:37;7.90;83.40
2639;DHT22;1329;51.384;7.122;2024-02-26T02:13:05;7.90;83.40
2639;DHT22;1329;51.384;7.122;2024-02-26T02:15:33;7.90;84.00
2639;DHT22;1329;51.384;7.122;2024-02-26T02:18:00;7.90;83.90
2639;DHT22;1329;51.384;7.122;2024-02-26T02:20:33;7.80;83.70
2639;DHT22;1329;51.384;7.122;2024-02-26T02:23:01;7.90;81.80
2639;DHT22;1329;51.384;7.122;2024-02-26T02:25:29;7.90;82.70
2639;DHT22;1329;51.384;7.122;2024-02-26T02:27:57;7.90;82.80
2639;DHT22;1329;51.384;7.122;2024-02-26T02:30:26;7.90;83.10
2639;DHT22;1329;51.384;7.122;2024-02-26T02:32:55;7.80;82.60
2639;DHT22;1329;51.384;7.122;2024-02-26T02:35:24;7.90;83.10
2639;DHT22;1329;51.384;7.122;2024-02-26T02:37:53;7.90;83.50
2639;DHT22;1329;51.384;7.122;2024-02-26T02:40:21;7.90;83.30
2639;DHT22;1329;51.384;7.122;2024-02-26T02:42:48;7.90;83.80
2639;DHT22;1329;51.384;7.122;2024-02-26T02:45:16;7.90;83.50
2639;DHT22;1329;51.384;7.122;2024-02-26T02:47:43;7.90;83.10
2639;DHT22;1329;51.384;7.122;2024-02-26T02:50:11;7.90;83.10
2639;DHT22;1329;51.384;7.122;2024-02-26T02:52:38;7.90;82.70
2639;DHT22;1329;51.384;7.122;2024-02-26T02:55:08;7.90;82.20
2639;DHT22;1329;51.384;7.122;2024-02-26T02:57:35;7.90;80.50
2639;DHT22;1329;51.384;7.122;2024-02-26T03:00:09;7.80;82.60
2639;DHT22;1329;51.384;7.122;2024-02-26T03:02:37;7.80;81.00
2639;DHT22;1329;51.384;7.122;2024-02-26T03:05:05;7.80;81.60
2639;DHT22;1329;51.384;7.122;2024-02-26T03:07:33;7.80;81.50
2639;DHT22;1329;51.384;7.122;2024-02-26T03:10:00;7.80;81.80
2639;DHT22;1329;51.384;7.122;2024-02-26T03:12:30;7.80;81.70
2639;DHT22;1329;51.384;7.122;2024-02-26T03:14:57;7.70;80.40
2639;DHT22;1329;51.384;7.122;2024-02-26T03:17:28;7.70;81.10
2639;DHT22;1329;51.384;7.122;2024-02-26T03:19:55;7.70;81.10
2639;DHT22;1329;51.384;7.122;2024-02-26T03:22:24;7.70;81.00
2639;DHT22;1329;51.384;7.122;2024-02-26T03:24:51;7.60;80.60
2639;DHT22;1329;51.384;7.122;2024-02-26T03:27:19;7.60;80.90
2639;DHT22;1329;51.384;7.122;2024-02-26T03:29:47;7.60;80.90
2639;DHT22;1329;51.384;7.122;2024-02-26T03:32:15;7.50;81.20
2639;DHT22;1329;51.384;7.122;2024-02-26T03:34:42;7.40;82.20
2639;DHT22;1329;51.384;7.122;2024-02-26T03:37:09;7.40;83.50
2639;DHT22;1329;51.384;7.122;2024-02-26T03:39:37;7.40;85.00
2639;DHT22;1329;51.384;7.122;2024-02-26T03:42:05;7.30;87.10
2639;DHT22;1329;51.384;7.122;2024-02-26T03:44:33;7.30;90.30
2639;DHT22;1329;51.384;7.122;2024-02-26T03:47:01;7.30;91.00
2639;DHT22;1329;51.384;7.122;2024-02-26T03:49:29;7.20;91.80
2639;DHT22;1329;51.384;7.122;2024-02-26T03:51:56;7.20;92.70
2639;DHT22;1329;51.384;7.122;2024-02-26T03:54:26;7.20;93.40
2639;DHT22;1329;51.384;7.122;2024-02-26T03:56:53;7.10;93.90
2639;DHT22;1329;51.384;7.122;2024-02-26T03:59:21;7.10;95.10
2639;DHT22;1329;51.384;7.122;2024-02-26T04:01:50;7.10;96.50
2639;DHT22;1329;51.384;7.122;2024-02-26T04:04:19;7.10;97.60
2639;DHT22;1329;51.384;7.122;2024-02-26T04:06:47;7.00;98.70
2639;DHT22;1329;51.384;7.122;2024-02-26T04:09:14;7.00;99.90
2639;DHT22;1329;51.384;7.122;2024-02-26T04:11:42;7.00;99.90
2639;DHT22;1329;51.384;7.122;2024-02-26T04:14:10;7.00;99.90
2639;DHT22;1329;51.384;7.122;2024-02-26T04:16:38;7.00;99.90
2639;DHT22;1329;51.384;7.122;2024-02-26T04:19:05;7.00;99.90
2639;DHT22;1329;51.384;7.122;2024-02-26T04:21:37;7.00;99.90
2639;DHT22;1329;51.384;7.122;2024-02-26T04:24:05;7.00;99.90
2639;DHT22;1329;51.384;7.122;2024-02-26T04:26:32;6.90;99.90
2639;DHT22;1329;51.384;7.122;2024-02-26T04:28:59;6.90;99.90
2639;DHT22;1329;51.384;7.122;2024-02-26T04:31:27;6.90;99.90
2639;DHT22;1329;51.384;7.122;2024-02-26T04:33:54;7.00;99.90
2639;DHT22;1329;51.384;7.122;2024-02-26T04:36:22;6.90;99.90
2639;DHT22;1329;51.384;7.122;2024-02-26T04:38:52;6.90;99.90
2639;DHT22;1329;51.384;7.122;2024-02-26T04:41:21;6.90;99.90
2639;DHT22;1329;51.384;7.122;2024-02-26T04:43:48;6.90;99.90
2639;DHT22;1329;51.384;7.122;2024-02-26T04:46:16;6.90;99.90
2639;DHT22;1329;51.384;7.122;2024-02-26T04:48:43;6.90;99.90
2639;DHT22;1329;51.384;7.122;2024-02-26T04:51:12;6.90;99.90
2639;DHT22;1329;51.384;7.122;2024-02-26T04:53:39;6.90;99.90
2639;DHT22;1329;51.384;7.122;2024-02-26T04:56:08;6.90;99.90
2639;DHT22;1329;51.384;7.122;2024-02-26T04:58:35;6.90;99.90
2639;DHT22;1329;51.384;7.122;2024-02-26T05:01:03;6.90;99.90
2639;DHT22;1329;51.384;7.122;2024-02-26T05:03:30;6.90;99.90
2639;DHT22;1329;51.384;7.122;2024-02-26T05:05:58;6.80;99.90
2639;DHT22;1329;51.384;7.122;2024-02-26T05:08:26;6.80;99.90
2639;DHT22;1329;51.384;7.122;2024-02-26T05:10:54;6.80;99.90
2639;DHT22;1329;51.384;7.122;2024-02-26T05:13:23;6.80;99.90
2639;DHT22;1329;51.384;7.122;2024-02-26T05:15:50;6.80;99.90
2639;DHT22;1329;51.384;7.122;2024-02-26T05:18:18;6.80;99.90
2639;DHT22;1329;51.384;7.122;2024-02-26T05:20:45;6.80;99.90
2639;DHT22;1329;51.384;7.122;2024-02-26T05:23:13;6.80;99.90
2639;DHT22;1329;51.384;7.122;2024-02-26T05:25:40;6.70;99.90
2639;DHT22;1329;51.384;7.122;2024-02-26T05:28:08;6.70;99.90
2639;DHT22;1329;51.384;7.122;2024-02-26T05:30:36;6.70;99.90
2639;DHT22;1329;51.384;7.122;2024-02-26T05:33:05;6.70;99.90
2639;DHT22;1329;51.384;7.122;2024-02-26T05:35:33;6.70;99.90
2639;DHT22;1329;51.384;7.122;2024-02-26T05:38:00;6.70;99.90
2639;DHT22;1329;51.384;7.122;2024-02-26T05:40:30;6.60;99.90
2639;DHT22;1329;51.384;7.122;2024-02-26T05:42:58;6.70;99.90
2639;DHT22;1329;51.384;7.122;2024-02-26T05:45:28;6.60;99.90
2639;DHT22;1329;51.384;7.122;2024-02-26T05:47:56;6.60;99.90
2639;DHT22;1329;51.384;7.122;2024-02-26T05:50:24;6.60;99.90
2639;DHT22;1329;51.384;7.122;2024-02-26T05:52:51;6.60;99.90
2639;DHT22;1329;51.384;7.122;2024-02-26T05:55:18;6.60;99.90
2639;DHT22;1329;51.384;7.122;2024-02-26T05:57:46;6.60;99.90
2639;DHT22;1329;51.384;7.122;2024-02-26T06:00:15;6.60;99.90
2639;DHT22;1329;51.384;7.122;2024-02-26T06:02:43;6.60;99.90
2639;DHT22;1329;51.384;7.122;2024-02-26T06:05:11;6.60;99.90
2639;DHT22;1329;51.384;7.122;2024-02-26T06:07:39;6.50;99.90
2639;DHT22;1329;51.384;7.122;2024-02-26T06:10:07;6.50;99.90
2639;DHT22;1329;51.384;7.122;2024-02-26T06:12:35;6.50;99.90
2639;DHT22;1329;51.384;7.122;2024-02-26T06:15:03;6.50;99.90
2639;DHT22;1329;51.384;7.122;2024-02-26T06:17:31;6.50;99.90
2639;DHT22;1329;51.384;7.122;2024-02-26T06:19:59;6.50;99.90
2639;DHT22;1329;51.384;7.122;2024-02-26T06:22:29;6.50;99.90
2639;DHT22;1329;51.384;7.122;2024-02-26T06:24:57;6.50;99.90
2639;DHT22;1329;51.384;7.122;2024-02-26T06:27:24;6.50;99.90
2639;DHT22;1329;51.384;7.122;2024-02-26T06:29:52;6.50;99.90
2639;DHT22;1329;51.384;7.122;2024-02-26T06:32:19;6.50;99.90
2639;DHT22;1329;51.384;7.122;2024-02-26T06:34:46;6.50;99.90
2639;DHT22;1329;51.384;7.122;2024-02-26T06:37:13;6.50;99.90
2639;DHT22;1329;51.384;7.122;2024-02-26T06:39:42;6.50;99.90
2639;DHT22;1329;51.384;7.122;2024-02-26T06:42:09;6.50;99.90
2639;DHT22;1329;51.384;7.122;2024-02-26T06:44:37;6.50;99.90
2639;DHT22;1329;51.384;7.122;2024-02-26T06:47:04;6.60;99.90
2639;DHT22;1329;51.384;7.122;2024-02-26T06:49:32;6.60;99.90
2639;DHT22;1329;51.384;7.122;2024-02-26T06:51:59;6.60;99.90
2639;DHT22;1329;51.384;7.122;2024-02-26T06:54:27;6.60;99.90
2639;DHT22;1329;51.384;7.122;2024-02-26T06:56:59;6.60;99.90
2639;DHT22;1329;51.384;7.122;2024-02-26T06:59:26;6.60;99.90
2639;DHT22;1329;51.384;7.122;2024-02-26T07:01:53;6.70;99.90
2639;DHT22;1329;51.384;7.122;2024-02-26T07:04:21;6.70;99.90
2639;DHT22;1329;51.384;7.122;2024-02-26T07:06:48;6.70;99.90
2639;DHT22;1329;51.384;7.122;2024-02-26T07:09:16;6.70;99.90
2639;DHT22;1329;51.384;7.122;2024-02-26T07:11:43;6.70;99.90
2639;DHT22;1329;51.384;7.122;2024-02-26T07:14:12;6.70;99.90
2639;DHT22;1329;51.384;7.122;2024-02-26T07:16:40;6.70;99.90
2639;DHT22;1329;51.384;7.122;2024-02-26T07:19:07;6.70;99.90
2639;DHT22;1329;51.384;7.122;2024-02-26T07:21:34;6.70;99.90
2639;DHT22;1329;51.384;7.122;2024-02-26T07:24:02;6.70;99.90
2639;DHT22;1329;51.384;7.122;2024-02-26T07:26:29;6.70;99.90
2639;DHT22;1329;51.384;7.122;2024-02-26T07:28:57;6.80;99.90
2639;DHT22;1329;51.384;7.122;2024-02-26T07:31:27;6.70;99.90
2639;DHT22;1329;51.384;7.122;2024-02-26T07:33:54;6.80;99.90
2639;DHT22;1329;51.384;7.122;2024-02-26T07:36:21;6.80;99.90
2639;DHT22;1329;51.384;7.122;2024-02-26T07:38:49;6.80;99.90
2639;DHT22;1329;51.384;7.122;2024-02-26T07:41:18;6.80;99.90
2639;DHT22;1329;51.384;7.122;2024-02-26T07:43:45;6.80;99.90
2639;DHT22;1329;51.384;7.122;2024-02-26T07:46:12;6.80;99.90
2639;DHT22;1329;51.384;7.122;2024-02-26T07:48:41;6.80;99.90
2639;DHT22;1329;51.384;7.122;2024-02-26T07:51:11;6.90;99.90
2639;DHT22;1329;51.384;7.122;2024-02-26T07:53:39;6.90;99.90
2639;DHT22;1329;51.384;7.122;2024-02-26T07:56:06;6.90;99.90
2639;DHT22;1329;51.384;7.122;2024-02-26T07:58:34;6.90;99.90
2639;DHT22;1329;51.384;7.122;2024-02-26T08:01:02;6.90;99.90
2639;DHT22;1329;51.384;7.122;2024-02-26T08:03:30;6.90;99.90
2639;DHT22;1329;51.384;7.122;2024-02-26T08:05:59;6.90;99.90
2639;DHT22;1329;51.384;7.122;2024-02-26T08:08:26;6.90;99.90
2639;DHT22;1329;51.384;7.122;2024-02-26T08:10:54;6.90;99.90
2639;DHT22;1329;51.384;7.122;2024-02-26T08:13:22;6.90;99.90
2639;DHT22;1329;51.384;7.122;2024-02-26T08:15:49;7.00;99.90
2639;DHT22;1329;51.384;7.122;2024-02-26T08:18:17;6.90;99.90
2639;DHT22;1329;51.384;7.122;2024-02-26T08:20:44;6.90;99.90
2639;DHT22;1329;51.384;7.122;2024-02-26T08:23:13;6.90;99.90
2639;DHT22;1329;51.384;7.122;2024-02-26T08:25:41;6.90;99.90
2639;DHT22;1329;51.384;7.122;2024-02-26T08:28:08;7.00;99.90
2639;DHT22;1329;51.384;7.122;2024-02-26T08:30:37;7.00;99.90
2639;DHT22;1329;51.384;7.122;2024-02-26T08:33:04;7.00;99.90
2639;DHT22;1329;51.384;7.122;2024-02-26T08:35:32;7.00;99.90
2639;DHT22;1329;51.384;7.122;2024-02-26T08:37:59;7.00;99.90
2639;DHT22;1329;51.384;7.122;2024-02-26T08:40:28;7.00;99.90
2639;DHT22;1329;51.384;7.122;2024-02-26T08:42:55;7.00;99.90
2639;DHT22;1329;51.384;7.122;2024-02-26T08:45:23;7.00;99.90
2639;DHT22;1329;51.384;7.122;2024-02-26T08:47:53;7.00;99.90
2639;DHT22;1329;51.384;7.122;2024-02-26T08:50:20;7.00;99.90
2639;DHT22;1329;51.384;7.122;2024-02-26T08:52:47;7.00;99.90
2639;DHT22;1329;51.384;7.122;2024-02-26T08:55:16;7.10;99.90
2639;DHT22;1329;51.384;7.122;2024-02-26T08:57:45;7.10;99.90
2639;DHT22;1329;51.384;7.122;2024-02-26T09:00:13;7.10;99.90
2639;DHT22;1329;51.384;7.122;2024-02-26T09:02:43;7.10;99.90
2639;DHT22;1329;51.384;7.122;2024-02-26T09:05:11;7.10;99.90
2639;DHT22;1329;51.384;7.122;2024-02-26T09:07:38;7.10;99.90
2639;DHT22;1329;51.384;7.122;2024-02-26T09:10:06;7.10;99.90
2639;DHT22;1329;51.384;7.122;2024-02-26T09:12:36;7.10;99.90
2639;DHT22;1329;51.384;7.122;2024-02-26T09:15:09;7.10;99.90
2639;DHT22;1329;51.384;7.122;2024-02-26T09:17:37;7.20;99.90
2639;DHT22;1329;51.384;7.122;2024-02-26T09:20:08;7.20;99.90
2639;DHT22;1329;51.384;7.122;2024-02-26T09:22:36;7.20;99.90
2639;DHT22;1329;51.384;7.122;2024-02-26T09:25:05;7.20;99.90
2639;DHT22;1329;51.384;7.122;2024-02-26T09:27:32;7.20;99.90
2639;DHT22;1329;51.384;7.122;2024-02-26T09:30:00;7.20;99.90
2639;DHT22;1329;51.384;7.122;2024-02-26T09:32:28;7.20;99.90
2639;DHT22;1329;51.384;7.122;2024-02-26T09:34:56;7.20;99.90
2639;DHT22;1329;51.384;7.122;2024-02-26T09:37:23;7.30;99.90
2639;DHT22;1329;51.384;7.122;2024-02-26T09:39:51;7.20;99.90
2639;DHT22;1329;51.384;7.122;2024-02-26T09:42:19;7.30;99.90
2639;DHT22;1329;51.384;7.122;2024-02-26T09:44:48;7.30;99.90
2639;DHT22;1329;51.384;7.122;2024-02-26T09:47:19;7.30;99.90
2639;DHT22;1329;51.384;7.122;2024-02-26T09:49:49;7.30;99.90
2639;DHT22;1329;51.384;7.122;2024-02-26T09:52:19;7.30;99.90
2639;DHT22;1329;51.384;7.122;2024-02-26T09:54:47;7.30;99.90
2639;DHT22;1329;51.384;7.122;2024-02-26T09:57:15;7.30;99.90
2639;DHT22;1329;51.384;7.122;2024-02-26T09:59:44;7.30;99.90
2639;DHT22;1329;51.384;7.122;2024-02-26T10:02:14;7.30;99.90
2639;DHT22;1329;51.384;7.122;2024-02-26T10:04:42;7.30;99.90
2639;DHT22;1329;51.384;7.122;2024-02-26T10:07:13;7.40;99.90
2639;DHT22;1329;51.384;7.122;2024-02-26T10:09:40;7.40;99.90
2639;DHT22;1329;51.384;7.122;2024-02-26T10:12:10;7.40;99.90
2639;DHT22;1329;51.384;7.122;2024-02-26T10:14:38;7.50;99.90
2639;DHT22;1329;51.384;7.122;2024-02-26T10:17:07;7.50;99.90
2639;DHT22;1329;51.384;7.122;2024-02-26T10:19:35;7.50;99.90
2639;DHT22;1329;51.384;7.122;2024-02-26T10:22:03;7.50;99.90
2639;DHT22;1329;51.384;7.122;2024-02-26T10:24:32;7.50;99.90
2639;DHT22;1329;51.384;7.122;2024-02-26T10:27:00;7.50;99.90
2639;DHT22;1329;51.384;7.122;2024-02-26T10:29:29;7.50;99.90
2639;DHT22;1329;51.384;7.122;2024-02-26T10:31:56;7.50;99.90
2639;DHT22;1329;51.384;7.122;2024-02-26T10:34:24;7.60;99.90
2639;DHT22;1329;51.384;7.122;2024-02-26T10:36:51;7.60;99.90
2639;DHT22;1329;51.384;7.122;2024-02-26T10:39:19;7.60;99.90
2639;DHT22;1329;51.384;7.122;2024-02-26T10:41:48;7.70;99.90
2639;DHT22;1329;51.384;7.122;2024-02-26T10:44:15;7.70;99.90
2639;DHT22;1329;51.384;7.122;2024-02-26T10:46:43;7.70;99.90
2639;DHT22;1329;51.384;7.122;2024-02-26T10:49:14;7.70;99.90
2639;DHT22;1329;51.384;7.122;2024-02-26T10:51:45;7.70;99.90
2639;DHT22;1329;51.384;7.122;2024-02-26T10:54:18;7.70;99.90
2639;DHT22;1329;51.384;7.122;2024-02-26T10:56:49;7.70;99.90
2639;DHT22;1329;51.384;7.122;2024-02-26T10:59:19;7.70;99.90
2639;DHT22;1329;51.384;7.122;2024-02-26T11:01:48;7.70;99.90
2639;DHT22;1329;51.384;7.122;2024-02-26T11:04:16;7.70;99.90
2639;DHT22;1329;51.384;7.122;2024-02-26T11:06:44;7.80;99.90
2639;DHT22;1329;51.384;7.122;2024-02-26T11:09:14;7.70;99.90
2639;DHT22;1329;51.384;7.122;2024-02-26T11:11:42;7.80;99.90
2639;DHT22;1329;51.384;7.122;2024-02-26T11:14:12;7.80;99.90
2639;DHT22;1329;51.384;7.122;2024-02-26T11:16:41;7.80;99.90
2639;DHT22;1329;51.384;7.122;2024-02-26T11:19:09;7.90;99.90
2639;DHT22;1329;51.384;7.122;2024-02-26T11:21:39;7.90;99.90
2639;DHT22;1329;51.384;7.122;2024-02-26T11:24:11;7.90;99.90
2639;DHT22;1329;51.384;7.122;2024-02-26T11:26:41;7.90;99.90
2639;DHT22;1329;51.384;7.122;2024-02-26T11:29:19;7.90;99.90
2639;DHT22;1329;51.384;7.122;2024-02-26T11:31:48;8.00;99.90
2639;DHT22;1329;51.384;7.122;2024-02-26T11:34:17;8.00;99.90
2639;DHT22;1329;51.384;7.122;2024-02-26T11:36:45;8.00;99.90
2639;DHT22;1329;51.384;7.122;2024-02-26T11:39:12;8.10;99.90
2639;DHT22;1329;51.384;7.122;2024-02-26T11:41:42;8.10;99.90
2639;DHT22;1329;51.384;7.122;2024-02-26T11:44:09;8.10;99.90
2639;DHT22;1329;51.384;7.122;2024-02-26T11:46:40;8.20;99.90
2639;DHT22;1329;51.384;7.122;2024-02-26T11:49:30;8.20;99.90
2639;DHT22;1329;51.384;7.122;2024-02-26T11:51:58;8.30;99.90
2639;DHT22;1329;51.384;7.122;2024-02-26T11:54:45;8.30;99.90
2639;DHT22;1329;51.384;7.122;2024-02-26T11:57:23;8.40;99.90
2639;DHT22;1329;51.384;7.122;2024-02-26T11:59:50;8.40;99.90
2639;DHT22;1329;51.384;7.122;2024-02-26T12:02:46;8.40;99.90
2639;DHT22;1329;51.384;7.122;2024-02-26T12:05:16;8.50;99.90
2639;DHT22;1329;51.384;7.122;2024-02-26T12:08:03;8.60;99.90
2639;DHT22;1329;51.384;7.122;2024-02-26T12:10:33;8.60;99.90
2639;DHT22;1329;51.384;7.122;2024-02-26T12:13:08;8.70;99.90
2639;DHT22;1329;51.384;7.122;2024-02-26T12:15:39;8.70;99.90
2639;DHT22;1329;51.384;7.122;2024-02-26T12:18:16;8.70;99.90
2639;DHT22;1329;51.384;7.122;2024-02-26T12:20:44;8.80;99.90
2639;DHT22;1329;51.384;7.122;2024-02-26T12:23:15;8.80;99.90
2639;DHT22;1329;51.384;7.122;2024-02-26T12:25:43;8.80;99.90
2639;DHT22;1329;51.384;7.122;2024-02-26T12:28:14;8.90;99.90
2639;DHT22;1329;51.384;7.122;2024-02-26T12:30:41;8.90;99.90
2639;DHT22;1329;51.384;7.122;2024-02-26T12:33:09;8.90;99.90
2639;DHT22;1329;51.384;7.122;2024-02-26T12:35:37;8.90;99.90
2639;DHT22;1329;51.384;7.122;2024-02-26T12:38:04;8.90;99.90
2639;DHT22;1329;51.384;7.122;2024-02-26T12:40:32;9.00;99.90
2639;DHT22;1329;51.384;7.122;2024-02-26T12:43:00;8.90;99.90
2639;DHT22;1329;51.384;7.122;2024-02-26T12:45:28;8.90;99.90
2639;DHT22;1329;51.384;7.122;2024-02-26T12:47:55;9.00;99.90
2639;DHT22;1329;51.384;7.122;2024-02-26T12:50:27;9.00;99.90
2639;DHT22;1329;51.384;7.122;2024-02-26T12:52:54;9.00;99.90
2639;DHT22;1329;51.384;7.122;2024-02-26T12:55:22;9.00;99.90
2639;DHT22;1329;51.384;7.122;2024-02-26T12:57:51;9.00;99.90
2639;DHT22;1329;51.384;7.122;2024-02-26T13:00:22;9.10;99.90
2639;DHT22;1329;51.384;7.122;2024-02-26T13:02:51;9.10;99.90
2639;DHT22;1329;51.384;7.122;2024-02-26T13:05:20;9.10;99.90
2639;DHT22;1329;51.384;7.122;2024-02-26T13:07:49;9.10;99.90
2639;DHT22;1329;51.384;7.122;2024-02-26T13:10:19;9.10;99.90
2639;DHT22;1329;51.384;7.122;2024-02-26T13:12:48;9.10;99.90
2639;DHT22;1329;51.384;7.122;2024-02-26T13:15:20;9.10;99.90
2639;DHT22;1329;51.384;7.122;2024-02-26T13:17:48;9.20;99.90
2639;DHT22;1329;51.384;7.122;2024-02-26T13:20:25;9.20;99.90
2639;DHT22;1329;51.384;7.122;2024-02-26T13:23:04;9.20;99.90
2639;DHT22;1329;51.384;7.122;2024-02-26T13:25:33;9.20;99.90
2639;DHT22;1329;51.384;7.122;2024-02-26T13:28:06;9.20;99.90
2639;DHT22;1329;51.384;7.122;2024-02-26T13:30:37;9.20;99.90
2639;DHT22;1329;51.384;7.122;2024-02-26T13:33:08;9.20;99.90
2639;DHT22;1329;51.384;7.122;2024-02-26T13:35:36;9.20;99.90
2639;DHT22;1329;51.384;7.122;2024-02-26T13:38:06;9.20;99.90
2639;DHT22;1329;51.384;7.122;2024-02-26T13:40:33;9.20;99.90
2639;DHT22;1329;51.384;7.122;2024-02-26T13:43:02;9.20;99.90
2639;DHT22;1329;51.384;7.122;2024-02-26T13:45:33;9.20;99.90
2639;DHT22;1329;51.384;7.122;2024-02-26T13:48:05;9.20;99.90
2639;DHT22;1329;51.384;7.122;2024-02-26T13:50:33;9.20;99.90
2639;DHT22;1329;51.384;7.122;2024-02-26T13:53:01;9.10;99.90
2639;DHT22;1329;51.384;7.122;2024-02-26T13:55:31;9.20;99.90
2639;DHT22;1329;51.384;7.122;2024-02-26T13:57:59;9.10;99.90
2639;DHT22;1329;51.384;7.122;2024-02-26T14:00:31;9.20;99.90
2639;DHT22;1329;51.384;7.122;2024-02-26T14:03:01;9.20;99.90
2639;DHT22;1329;51.384;7.122;2024-02-26T14:05:32;9.20;99.90
2639;DHT22;1329;51.384;7.122;2024-02-26T14:08:00;9.20;99.90
2639;DHT22;1329;51.384;7.122;2024-02-26T14:10:27;9.20;99.90
2639;DHT22;1329;51.384;7.122;2024-02-26T14:12:58;9.20;99.90
2639;DHT22;1329;51.384;7.122;2024-02-26T14:15:29;9.20;99.90
2639;DHT22;1329;51.384;7.122;2024-02-26T14:17:57;9.20;99.90
2639;DHT22;1329;51.384;7.122;2024-02-26T14:20:25;9.20;99.90
2639;DHT22;1329;51.384;7.122;2024-02-26T14:22:53;9.10;99.90
2639;DHT22;1329;51.384;7.122;2024-02-26T14:25:24;9.10;99.90
2639;DHT22;1329;51.384;7.122;2024-02-26T14:27:54;9.10;99.90
2639;DHT22;1329;51.384;7.122;2024-02-26T14:30:27;9.10;99.90
2639;DHT22;1329;51.384;7.122;2024-02-26T14:32:54;9.10;99.90
2639;DHT22;1329;51.384;7.122;2024-02-26T14:35:22;9.10;99.90
2639;DHT22;1329;51.384;7.122;2024-02-26T14:37:55;9.10;99.90
2639;DHT22;1329;51.384;7.122;2024-02-26T14:40:28;9.10;99.90
2639;DHT22;1329;51.384;7.122;2024-02-26T14:42:55;9.20;99.90
2639;DHT22;1329;51.384;7.122;2024-02-26T14:45:26;9.20;99.90
2639;DHT22;1329;51.384;7.122;2024-02-26T14:47:57;9.20;99.90
2639;DHT22;1329;51.384;7.122;2024-02-26T14:50:26;9.20;99.90
2639;DHT22;1329;51.384;7.122;2024-02-26T14:52:55;9.30;99.90
2639;DHT22;1329;51.384;7.122;2024-02-26T14:55:22;9.30;99.90
2639;DHT22;1329;51.384;7.122;2024-02-26T14:57:53;9.30;99.90
2639;DHT22;1329;51.384;7.122;2024-02-26T15:00:22;9.30;99.90
2639;DHT22;1329;51.384;7.122;2024-02-26T15:02:51;9.30;99.90
2639;DHT22;1329;51.384;7.122;2024-02-26T15:05:20;9.40;99.90
2639;DHT22;1329;51.384;7.122;2024-02-26T15:07:47;9.30;99.90
2639;DHT22;1329;51.384;7.122;2024-02-26T15:10:15;9.40;99.90
2639;DHT22;1329;51.384;7.122;2024-02-26T15:12:46;9.40;99.90
2639;DHT22;1329;51.384;7.122;2024-02-26T15:15:14;9.40;99.90
2639;DHT22;1329;51.384;7.122;2024-02-26T15:17:45;9.40;99.90
2639;DHT22;1329;51.384;7.122;2024-02-26T15:20:15;9.40;99.90
2639;DHT22;1329;51.384;7.122;2024-02-26T15:22:49;9.50;99.90
2639;DHT22;1329;51.384;7.122;2024-02-26T15:25:16;9.50;99.90
2639;DHT22;1329;51.384;7.122;2024-02-26T15:27:45;9.50;99.90
2639;DHT22;1329;51.384;7.122;2024-02-26T15:30:13;9.40;99.90
2639;DHT22;1329;51.384;7.122;2024-02-26T15:32:44;9.50;99.90
2639;DHT22;1329;51.384;7.122;2024-02-26T15:35:14;9.40;99.90
2639;DHT22;1329;51.384;7.122;2024-02-26T15:37:41;9.40;99.90
2639;DHT22;1329;51.384;7.122;2024-02-26T15:40:12;9.40;99.90
2639;DHT22;1329;51.384;7.122;2024-02-26T15:42:39;9.40;99.90
2639;DHT22;1329;51.384;7.122;2024-02-26T15:45:08;9.30;99.90
2639;DHT22;1329;51.384;7.122;2024-02-26T15:47:36;9.30;99.90
2639;DHT22;1329;51.384;7.122;2024-02-26T15:50:08;9.30;99.90
2639;DHT22;1329;51.384;7.122;2024-02-26T15:52:46;9.30;99.90
2639;DHT22;1329;51.384;7.122;2024-02-26T15:55:15;9.30;99.90
2639;DHT22;1329;51.384;7.122;2024-02-26T15:57:43;9.30;99.90
2639;DHT22;1329;51.384;7.122;2024-02-26T16:00:17;9.30;99.90
2639;DHT22;1329;51.384;7.122;2024-02-26T16:02:47;9.20;99.90
2639;DHT22;1329;51.384;7.122;2024-02-26T16:05:17;9.20;99.90
2639;DHT22;1329;51.384;7.122;2024-02-26T16:07:51;9.20;99.90
2639;DHT22;1329;51.384;7.122;2024-02-26T16:10:22;9.10;99.90
2639;DHT22;1329;51.384;7.122;2024-02-26T16:12:55;9.10;99.90
2639;DHT22;1329;51.384;7.122;2024-02-26T16:15:26;9.10;99.90
2639;DHT22;1329;51.384;7.122;2024-02-26T16:17:59;9.10;99.90
2639;DHT22;1329;51.384;7.122;2024-02-26T16:20:28;9.00;99.90
2639;DHT22;1329;51.384;7.122;2024-02-26T16:23:00;9.00;99.90
2639;DHT22;1329;51.384;7.122;2024-02-26T16:25:35;9.00;99.90
2639;DHT22;1329;51.384;7.122;2024-02-26T16:28:03;9.00;99.90